Terminal Aerodrome Forecast
Issued by NWS Mt. Holly, NJ

Current Version | Previous Version | Text Only | Print | Product List | Glossary On
Versions: 1 2 3 4 5 6 7 8 9 10 11 12 13 14 15 16 17 18 19 20 21 22 23 24 25 26 27 28 29 30
000
FTUS41 KPHI 190856 AAA
TAFPHL
TAF AMD
KPHL 190856Z 1909/2012 25007KT P6SM BKN009
     FM191100 32006KT P6SM SCT025
     FM191400 30008KT P6SM FEW040
     FM191800 27010KT P6SM SCT050
     FM200200 28004KT P6SM SCT130
     FM201100 34005KT P6SM FEW250=

USA.gov is the U.S. government's official web portal to all federal, state and local government web resources and services.